<?xml version="1.0" encoding="utf-8"?>
<gpx xmlns:xsi="http://www.w3.org/2001/XMLSchema-instance" xmlns:xsd="http://www.w3.org/2001/XMLSchema" version="1.1" creator="Shapelink.com" xmlns="http://www.topografix.com/GPX/1/1" xmlns:gpxtpx="http://www.garmin.com/xmlschemas/TrackPointExtension/v1">
  <metadata>
    <name>Orientering 6.23 km, 2012-02-25</name>
    <desc></desc>
    <author><name>Dennis Rehn</name></author> 
    <time>2012-02-25T09:38:28Z</time>
  </metadata>
  <trk>
    <name>Orientering 6.23 km, 2012-02-25</name>
    <trkseg>
      <trkpt lat="59.9729085659" lon="23.4402623835">
        <ele>18.2</ele>
        <time>2012-02-25T09:38:28Z</time>
      </trkpt>
      <trkpt lat="59.9728304466" lon="23.44008058">
        <ele>18.2</ele>
        <time>2012-02-25T09:38:31Z</time>
      </trkpt>
      <trkpt lat="59.9729050455" lon="23.439905566">
        <ele>18.2</ele>
        <time>2012-02-25T09:38:35Z</time>
      </trkpt>
      <trkpt lat="59.9730157704" lon="23.4396484931">
        <ele>18.2</ele>
        <time>2012-02-25T09:38:39Z</time>
      </trkpt>
      <trkpt lat="59.9730927162" lon="23.4393780092">
        <ele>18.2</ele>
        <time>2012-02-25T09:38:43Z</time>
      </trkpt>
      <trkpt lat="59.9731255733" lon="23.4390172522">
        <ele>18.2</ele>
        <time>2012-02-25T09:38:47Z</time>
      </trkpt>
      <trkpt lat="59.973132614" lon="23.4389220338">
        <ele>18.2</ele>
        <time>2012-02-25T09:38:48Z</time>
      </trkpt>
      <trkpt lat="59.9731567539" lon="23.4387559046">
        <ele>18.2</ele>
        <time>2012-02-25T09:38:50Z</time>
      </trkpt>
      <trkpt lat="59.9732051175" lon="23.4384218858">
        <ele>18.2</ele>
        <time>2012-02-25T09:38:54Z</time>
      </trkpt>
      <trkpt lat="59.9731975738" lon="23.4382622107">
        <ele>18.2</ele>
        <time>2012-02-25T09:38:57Z</time>
      </trkpt>
      <trkpt lat="59.973064553" lon="23.4382646414">
        <ele>18.2</ele>
        <time>2012-02-25T09:39:00Z</time>
      </trkpt>
      <trkpt lat="59.9730133396" lon="23.4382816567">
        <ele>18.2</ele>
        <time>2012-02-25T09:39:01Z</time>
      </trkpt>
      <trkpt lat="59.9729671553" lon="23.4382986719">
        <ele>18.2</ele>
        <time>2012-02-25T09:39:02Z</time>
      </trkpt>
      <trkpt lat="59.9729465359" lon="23.4383026114">
        <ele>18.2</ele>
        <time>2012-02-25T09:39:06Z</time>
      </trkpt>
      <trkpt lat="59.9730216377" lon="23.4383035334">
        <ele>18.2</ele>
        <time>2012-02-25T09:39:08Z</time>
      </trkpt>
      <trkpt lat="59.9732618629" lon="23.4381758771">
        <ele>18.2</ele>
        <time>2012-02-25T09:39:14Z</time>
      </trkpt>
      <trkpt lat="59.973389184" lon="23.4380003601">
        <ele>18.2</ele>
        <time>2012-02-25T09:39:18Z</time>
      </trkpt>
      <trkpt lat="59.9734369608" lon="23.4378110968">
        <ele>18.2</ele>
        <time>2012-02-25T09:39:21Z</time>
      </trkpt>
      <trkpt lat="59.9735230429" lon="23.437477581">
        <ele>18.2</ele>
        <time>2012-02-25T09:39:26Z</time>
      </trkpt>
      <trkpt lat="59.9736061076" lon="23.4372183288">
        <ele>18.2</ele>
        <time>2012-02-25T09:39:30Z</time>
      </trkpt>
      <trkpt lat="59.9735786988" lon="23.4368807897">
        <ele>18.2</ele>
        <time>2012-02-25T09:39:35Z</time>
      </trkpt>
      <trkpt lat="59.9735559838" lon="23.4368320909">
        <ele>18.2</ele>
        <time>2012-02-25T09:39:36Z</time>
      </trkpt>
      <trkpt lat="59.973410474" lon="23.4366664645">
        <ele>18.2</ele>
        <time>2012-02-25T09:39:40Z</time>
      </trkpt>
      <trkpt lat="59.9731324464" lon="23.4363430908">
        <ele>18.2</ele>
        <time>2012-02-25T09:39:48Z</time>
      </trkpt>
      <trkpt lat="59.9730843343" lon="23.4361177854">
        <ele>18.2</ele>
        <time>2012-02-25T09:39:52Z</time>
      </trkpt>
      <trkpt lat="59.9731642138" lon="23.4358565215">
        <ele>18.2</ele>
        <time>2012-02-25T09:39:56Z</time>
      </trkpt>
      <trkpt lat="59.9732811413" lon="23.4354779949">
        <ele>18.2</ele>
        <time>2012-02-25T09:40:01Z</time>
      </trkpt>
      <trkpt lat="59.9732932113" lon="23.43540063">
        <ele>18.2</ele>
        <time>2012-02-25T09:40:02Z</time>
      </trkpt>
      <trkpt lat="59.9732975698" lon="23.435327456">
        <ele>18.2</ele>
        <time>2012-02-25T09:40:03Z</time>
      </trkpt>
      <trkpt lat="59.9732913672" lon="23.4348468379">
        <ele>18.2</ele>
        <time>2012-02-25T09:40:09Z</time>
      </trkpt>
      <trkpt lat="59.9732871763" lon="23.4347712331">
        <ele>18.2</ele>
        <time>2012-02-25T09:40:10Z</time>
      </trkpt>
      <trkpt lat="59.973259516" lon="23.4343077141">
        <ele>18.2</ele>
        <time>2012-02-25T09:40:16Z</time>
      </trkpt>
      <trkpt lat="59.9732541516" lon="23.4341466139">
        <ele>18.2</ele>
        <time>2012-02-25T09:40:18Z</time>
      </trkpt>
      <trkpt lat="59.9733459334" lon="23.4340190414">
        <ele>18.2</ele>
        <time>2012-02-25T09:40:22Z</time>
      </trkpt>
      <trkpt lat="59.9735434948" lon="23.4339609549">
        <ele>18.2</ele>
        <time>2012-02-25T09:40:28Z</time>
      </trkpt>
      <trkpt lat="59.9735661259" lon="23.4339357253">
        <ele>18.2</ele>
        <time>2012-02-25T09:40:29Z</time>
      </trkpt>
      <trkpt lat="59.973595714" lon="23.4337652375">
        <ele>18.2</ele>
        <time>2012-02-25T09:40:32Z</time>
      </trkpt>
      <trkpt lat="59.9735969713" lon="23.4336828434">
        <ele>18.2</ele>
        <time>2012-02-25T09:40:33Z</time>
      </trkpt>
      <trkpt lat="59.9736246316" lon="23.4333190689">
        <ele>18.2</ele>
        <time>2012-02-25T09:40:38Z</time>
      </trkpt>
      <trkpt lat="59.973623039" lon="23.4332114454">
        <ele>18.2</ele>
        <time>2012-02-25T09:40:39Z</time>
      </trkpt>
      <trkpt lat="59.9737225322" lon="23.4331361759">
        <ele>18.2</ele>
        <time>2012-02-25T09:40:43Z</time>
      </trkpt>
      <trkpt lat="59.9737572332" lon="23.4331520177">
        <ele>18.2</ele>
        <time>2012-02-25T09:40:44Z</time>
      </trkpt>
      <trkpt lat="59.9739903339" lon="23.4332402791">
        <ele>18.2</ele>
        <time>2012-02-25T09:40:50Z</time>
      </trkpt>
      <trkpt lat="59.9740317405" lon="23.4332730523">
        <ele>18.2</ele>
        <time>2012-02-25T09:40:51Z</time>
      </trkpt>
      <trkpt lat="59.9741103627" lon="23.4333178955">
        <ele>18.2</ele>
        <time>2012-02-25T09:40:53Z</time>
      </trkpt>
      <trkpt lat="59.9741359275" lon="23.4333489085">
        <ele>18.2</ele>
        <time>2012-02-25T09:40:58Z</time>
      </trkpt>
      <trkpt lat="59.9741089378" lon="23.4333546082">
        <ele>18.2</ele>
        <time>2012-02-25T09:41:02Z</time>
      </trkpt>
      <trkpt lat="59.9740073491" lon="23.4333095974">
        <ele>18.2</ele>
        <time>2012-02-25T09:41:05Z</time>
      </trkpt>
      <trkpt lat="59.9737919343" lon="23.4332303046">
        <ele>18.2</ele>
        <time>2012-02-25T09:41:10Z</time>
      </trkpt>
      <trkpt lat="59.9736444129" lon="23.4331940948">
        <ele>18.2</ele>
        <time>2012-02-25T09:41:13Z</time>
      </trkpt>
      <trkpt lat="59.9735398067" lon="23.4329472479">
        <ele>18.2</ele>
        <time>2012-02-25T09:41:17Z</time>
      </trkpt>
      <trkpt lat="59.9735351967" lon="23.4328630098">
        <ele>18.2</ele>
        <time>2012-02-25T09:41:18Z</time>
      </trkpt>
      <trkpt lat="59.9735314248" lon="23.4326836371">
        <ele>18.2</ele>
        <time>2012-02-25T09:41:20Z</time>
      </trkpt>
      <trkpt lat="59.9735076203" lon="23.4324344432">
        <ele>18.2</ele>
        <time>2012-02-25T09:41:23Z</time>
      </trkpt>
      <trkpt lat="59.9734922814" lon="23.4319052101">
        <ele>18.4</ele>
        <time>2012-02-25T09:41:29Z</time>
      </trkpt>
      <trkpt lat="59.9734725839" lon="23.4315736221">
        <ele>19</ele>
        <time>2012-02-25T09:41:33Z</time>
      </trkpt>
      <trkpt lat="59.9734725839" lon="23.4314084987">
        <ele>19.2</ele>
        <time>2012-02-25T09:41:35Z</time>
      </trkpt>
      <trkpt lat="59.9734680577" lon="23.4312546908">
        <ele>19.4</ele>
        <time>2012-02-25T09:41:37Z</time>
      </trkpt>
      <trkpt lat="59.9734519644" lon="23.4308688719">
        <ele>19.8</ele>
        <time>2012-02-25T09:41:42Z</time>
      </trkpt>
      <trkpt lat="59.9734476897" lon="23.430424296">
        <ele>20.8</ele>
        <time>2012-02-25T09:41:48Z</time>
      </trkpt>
      <trkpt lat="59.9734479411" lon="23.4303189355">
        <ele>21</ele>
        <time>2012-02-25T09:41:49Z</time>
      </trkpt>
      <trkpt lat="59.9734553172" lon="23.4301406525">
        <ele>21.2</ele>
        <time>2012-02-25T09:41:52Z</time>
      </trkpt>
      <trkpt lat="59.9734749308" lon="23.4303037642">
        <ele>21.6</ele>
        <time>2012-02-25T09:41:56Z</time>
      </trkpt>
      <trkpt lat="59.9734700693" lon="23.4307503519">
        <ele>21.8</ele>
        <time>2012-02-25T09:42:01Z</time>
      </trkpt>
      <trkpt lat="59.9734736736" lon="23.4310900703">
        <ele>22</ele>
        <time>2012-02-25T09:42:05Z</time>
      </trkpt>
      <trkpt lat="59.9735348614" lon="23.4312445487">
        <ele>22</ele>
        <time>2012-02-25T09:42:08Z</time>
      </trkpt>
      <trkpt lat="59.9735667965" lon="23.4312595523">
        <ele>22</ele>
        <time>2012-02-25T09:42:09Z</time>
      </trkpt>
      <trkpt lat="59.9736409763" lon="23.4312445487">
        <ele>22</ele>
        <time>2012-02-25T09:42:11Z</time>
      </trkpt>
      <trkpt lat="59.9738046748" lon="23.4311821035">
        <ele>22</ele>
        <time>2012-02-25T09:42:15Z</time>
      </trkpt>
      <trkpt lat="59.9738907569" lon="23.4311557844">
        <ele>21.6</ele>
        <time>2012-02-25T09:42:17Z</time>
      </trkpt>
      <trkpt lat="59.9739216023" lon="23.4311177306">
        <ele>21.4</ele>
        <time>2012-02-25T09:42:19Z</time>
      </trkpt>
      <trkpt lat="59.9738012382" lon="23.4311645854">
        <ele>21</ele>
        <time>2012-02-25T09:42:23Z</time>
      </trkpt>
      <trkpt lat="59.9737653637" lon="23.4311761524">
        <ele>20.6</ele>
        <time>2012-02-25T09:42:24Z</time>
      </trkpt>
      <trkpt lat="59.973644329" lon="23.4311961013">
        <ele>19.8</ele>
        <time>2012-02-25T09:42:28Z</time>
      </trkpt>
      <trkpt lat="59.9735250546" lon="23.4311743922">
        <ele>19.2</ele>
        <time>2012-02-25T09:42:32Z</time>
      </trkpt>
      <trkpt lat="59.9734724163" lon="23.4309357595">
        <ele>18.8</ele>
        <time>2012-02-25T09:42:36Z</time>
      </trkpt>
      <trkpt lat="59.973470237" lon="23.4304375394">
        <ele>18.4</ele>
        <time>2012-02-25T09:42:43Z</time>
      </trkpt>
      <trkpt lat="59.9734794571" lon="23.4300440092">
        <ele>18.4</ele>
        <time>2012-02-25T09:42:48Z</time>
      </trkpt>
      <trkpt lat="59.9734787865" lon="23.42981116">
        <ele>18.2</ele>
        <time>2012-02-25T09:42:51Z</time>
      </trkpt>
      <trkpt lat="59.9735074526" lon="23.429335571">
        <ele>17.2</ele>
        <time>2012-02-25T09:42:57Z</time>
      </trkpt>
      <trkpt lat="59.9735111407" lon="23.4292564458">
        <ele>17.2</ele>
        <time>2012-02-25T09:42:58Z</time>
      </trkpt>
      <trkpt lat="59.9735046866" lon="23.4289591398">
        <ele>16.8</ele>
        <time>2012-02-25T09:43:02Z</time>
      </trkpt>
      <trkpt lat="59.9735020044" lon="23.4288355906">
        <ele>16.6</ele>
        <time>2012-02-25T09:43:04Z</time>
      </trkpt>
      <trkpt lat="59.9734393916" lon="23.4286765022">
        <ele>16</ele>
        <time>2012-02-25T09:43:08Z</time>
      </trkpt>
      <trkpt lat="59.9734082947" lon="23.4286445671">
        <ele>15.8</ele>
        <time>2012-02-25T09:43:09Z</time>
      </trkpt>
      <trkpt lat="59.973225234" lon="23.4285739915">
        <ele>15</ele>
        <time>2012-02-25T09:43:14Z</time>
      </trkpt>
      <trkpt lat="59.9730320312" lon="23.4285816191">
        <ele>14.6</ele>
        <time>2012-02-25T09:43:19Z</time>
      </trkpt>
      <trkpt lat="59.9728452825" lon="23.4286480875">
        <ele>14.4</ele>
        <time>2012-02-25T09:43:24Z</time>
      </trkpt>
      <trkpt lat="59.9726623895" lon="23.428789574">
        <ele>14.2</ele>
        <time>2012-02-25T09:43:29Z</time>
      </trkpt>
      <trkpt lat="59.9724730423" lon="23.4288640891">
        <ele>14.2</ele>
        <time>2012-02-25T09:43:34Z</time>
      </trkpt>
      <trkpt lat="59.9723175581" lon="23.4289194096">
        <ele>13.6</ele>
        <time>2012-02-25T09:43:39Z</time>
      </trkpt>
      <trkpt lat="59.9722909036" lon="23.4291005425">
        <ele>13</ele>
        <time>2012-02-25T09:43:44Z</time>
      </trkpt>
      <trkpt lat="59.9722846172" lon="23.4291297953">
        <ele>12.8</ele>
        <time>2012-02-25T09:43:45Z</time>
      </trkpt>
      <trkpt lat="59.9721973616" lon="23.4288843733">
        <ele>12.4</ele>
        <time>2012-02-25T09:43:51Z</time>
      </trkpt>
      <trkpt lat="59.9720146362" lon="23.4288901568">
        <ele>12.2</ele>
        <time>2012-02-25T09:43:57Z</time>
      </trkpt>
      <trkpt lat="59.9718055078" lon="23.4289524343">
        <ele>12</ele>
        <time>2012-02-25T09:44:03Z</time>
      </trkpt>
      <trkpt lat="59.971654466" lon="23.4290534362">
        <ele>11.2</ele>
        <time>2012-02-25T09:44:08Z</time>
      </trkpt>
      <trkpt lat="59.9717271371" lon="23.4292467228">
        <ele>10.8</ele>
        <time>2012-02-25T09:44:12Z</time>
      </trkpt>
      <trkpt lat="59.97175354" lon="23.4293839345">
        <ele>10.6</ele>
        <time>2012-02-25T09:44:14Z</time>
      </trkpt>
      <trkpt lat="59.9718420529" lon="23.4297216413">
        <ele>10.4</ele>
        <time>2012-02-25T09:44:19Z</time>
      </trkpt>
      <trkpt lat="59.9719132152" lon="23.4300390638">
        <ele>10.2</ele>
        <time>2012-02-25T09:44:24Z</time>
      </trkpt>
      <trkpt lat="59.9719729782" lon="23.4302637826">
        <ele>10.2</ele>
        <time>2012-02-25T09:44:28Z</time>
      </trkpt>
      <trkpt lat="59.9719125447" lon="23.4303823865">
        <ele>10.2</ele>
        <time>2012-02-25T09:44:32Z</time>
      </trkpt>
      <trkpt lat="59.971913802" lon="23.4303729987">
        <ele>10</ele>
        <time>2012-02-25T09:44:35Z</time>
      </trkpt>
      <trkpt lat="59.9719755766" lon="23.4303147445">
        <ele>10</ele>
        <time>2012-02-25T09:44:38Z</time>
      </trkpt>
      <trkpt lat="59.9720650953" lon="23.4304429876">
        <ele>10</ele>
        <time>2012-02-25T09:44:42Z</time>
      </trkpt>
      <trkpt lat="59.9720845413" lon="23.4304958774">
        <ele>10</ele>
        <time>2012-02-25T09:44:43Z</time>
      </trkpt>
      <trkpt lat="59.9722047377" lon="23.4308640104">
        <ele>10</ele>
        <time>2012-02-25T09:44:49Z</time>
      </trkpt>
      <trkpt lat="59.972273134" lon="23.4310548663">
        <ele>10</ele>
        <time>2012-02-25T09:44:52Z</time>
      </trkpt>
      <trkpt lat="59.9724132794" lon="23.4312881346">
        <ele>10</ele>
        <time>2012-02-25T09:44:57Z</time>
      </trkpt>
      <trkpt lat="59.9725669196" lon="23.4314753024">
        <ele>10</ele>
        <time>2012-02-25T09:45:02Z</time>
      </trkpt>
      <trkpt lat="59.9726467153" lon="23.4315987678">
        <ele>10</ele>
        <time>2012-02-25T09:45:05Z</time>
      </trkpt>
      <trkpt lat="59.9725908919" lon="23.4319009353">
        <ele>10</ele>
        <time>2012-02-25T09:45:10Z</time>
      </trkpt>
      <trkpt lat="59.9725398461" lon="23.4320094809">
        <ele>10</ele>
        <time>2012-02-25T09:45:12Z</time>
      </trkpt>
      <trkpt lat="59.9724289535" lon="23.4323359559">
        <ele>10</ele>
        <time>2012-02-25T09:45:18Z</time>
      </trkpt>
      <trkpt lat="59.9724337312" lon="23.432381302">
        <ele>10</ele>
        <time>2012-02-25T09:45:19Z</time>
      </trkpt>
      <trkpt lat="59.9725637345" lon="23.4326384587">
        <ele>10</ele>
        <time>2012-02-25T09:45:25Z</time>
      </trkpt>
      <trkpt lat="59.9726133553" lon="23.4327205175">
        <ele>10</ele>
        <time>2012-02-25T09:45:27Z</time>
      </trkpt>
      <trkpt lat="59.9727946558" lon="23.4325828029">
        <ele>10</ele>
        <time>2012-02-25T09:45:32Z</time>
      </trkpt>
      <trkpt lat="59.9728757088" lon="23.432502169">
        <ele>10</ele>
        <time>2012-02-25T09:45:34Z</time>
      </trkpt>
      <trkpt lat="59.9731394872" lon="23.4323119837">
        <ele>10</ele>
        <time>2012-02-25T09:45:41Z</time>
      </trkpt>
      <trkpt lat="59.9731785469" lon="23.4323084633">
        <ele>10</ele>
        <time>2012-02-25T09:45:43Z</time>
      </trkpt>
      <trkpt lat="59.9731819834" lon="23.4323045238">
        <ele>10</ele>
        <time>2012-02-25T09:45:44Z</time>
      </trkpt>
      <trkpt lat="59.9729441051" lon="23.4324849861">
        <ele>10</ele>
        <time>2012-02-25T09:45:50Z</time>
      </trkpt>
      <trkpt lat="59.9727659897" lon="23.4326483493">
        <ele>10</ele>
        <time>2012-02-25T09:45:55Z</time>
      </trkpt>
      <trkpt lat="59.9727114236" lon="23.4327164942">
        <ele>10</ele>
        <time>2012-02-25T09:45:57Z</time>
      </trkpt>
      <trkpt lat="59.972770516" lon="23.4329475831">
        <ele>10</ele>
        <time>2012-02-25T09:46:02Z</time>
      </trkpt>
      <trkpt lat="59.9727964999" lon="23.432998126">
        <ele>10</ele>
        <time>2012-02-25T09:46:03Z</time>
      </trkpt>
      <trkpt lat="59.9729283471" lon="23.4332539416">
        <ele>10</ele>
        <time>2012-02-25T09:46:08Z</time>
      </trkpt>
      <trkpt lat="59.973066397" lon="23.4335224977">
        <ele>10</ele>
        <time>2012-02-25T09:46:13Z</time>
      </trkpt>
      <trkpt lat="59.9731947239" lon="23.4338040457">
        <ele>10</ele>
        <time>2012-02-25T09:46:18Z</time>
      </trkpt>
      <trkpt lat="59.9732590131" lon="23.4339771319">
        <ele>10</ele>
        <time>2012-02-25T09:46:21Z</time>
      </trkpt>
      <trkpt lat="59.973175697" lon="23.4341138407">
        <ele>10</ele>
        <time>2012-02-25T09:46:25Z</time>
      </trkpt>
      <trkpt lat="59.973101601" lon="23.4341393217">
        <ele>10</ele>
        <time>2012-02-25T09:46:27Z</time>
      </trkpt>
      <trkpt lat="59.9728960768" lon="23.4342276669">
        <ele>10</ele>
        <time>2012-02-25T09:46:32Z</time>
      </trkpt>
      <trkpt lat="59.9728767146" lon="23.4342395692">
        <ele>10</ele>
        <time>2012-02-25T09:46:33Z</time>
      </trkpt>
      <trkpt lat="59.9728483838" lon="23.4342225539">
        <ele>10</ele>
        <time>2012-02-25T09:46:37Z</time>
      </trkpt>
      <trkpt lat="59.9728378226" lon="23.4342182792">
        <ele>10</ele>
        <time>2012-02-25T09:46:38Z</time>
      </trkpt>
      <trkpt lat="59.9727368207" lon="23.4342599372">
        <ele>10</ele>
        <time>2012-02-25T09:46:41Z</time>
      </trkpt>
      <trkpt lat="59.9725573643" lon="23.4343588436">
        <ele>10</ele>
        <time>2012-02-25T09:46:46Z</time>
      </trkpt>
      <trkpt lat="59.9725030495" lon="23.4346069479">
        <ele>10</ele>
        <time>2012-02-25T09:46:50Z</time>
      </trkpt>
      <trkpt lat="59.9724882136" lon="23.4347346042">
        <ele>10</ele>
        <time>2012-02-25T09:46:52Z</time>
      </trkpt>
      <trkpt lat="59.9724542669" lon="23.4349651903">
        <ele>10</ele>
        <time>2012-02-25T09:46:55Z</time>
      </trkpt>
      <trkpt lat="59.9723709508" lon="23.4352950181">
        <ele>10.6</ele>
        <time>2012-02-25T09:47:00Z</time>
      </trkpt>
      <trkpt lat="59.9722407799" lon="23.4354820182">
        <ele>11</ele>
        <time>2012-02-25T09:47:04Z</time>
      </trkpt>
      <trkpt lat="59.9720688671" lon="23.435680334">
        <ele>11.4</ele>
        <time>2012-02-25T09:47:09Z</time>
      </trkpt>
      <trkpt lat="59.9718908356" lon="23.4358630594">
        <ele>11.6</ele>
        <time>2012-02-25T09:47:14Z</time>
      </trkpt>
      <trkpt lat="59.9717207668" lon="23.4360390793">
        <ele>11.8</ele>
        <time>2012-02-25T09:47:19Z</time>
      </trkpt>
      <trkpt lat="59.9715532964" lon="23.4362725152">
        <ele>12</ele>
        <time>2012-02-25T09:47:25Z</time>
      </trkpt>
      <trkpt lat="59.9714359498" lon="23.4366165084">
        <ele>12</ele>
        <time>2012-02-25T09:47:31Z</time>
      </trkpt>
      <trkpt lat="59.9713880892" lon="23.4368211106">
        <ele>12</ele>
        <time>2012-02-25T09:47:34Z</time>
      </trkpt>
      <trkpt lat="59.9714361175" lon="23.4369692188">
        <ele>12</ele>
        <time>2012-02-25T09:47:37Z</time>
      </trkpt>
      <trkpt lat="59.9715148235" lon="23.4370855595">
        <ele>12</ele>
        <time>2012-02-25T09:47:40Z</time>
      </trkpt>
      <trkpt lat="59.9715796156" lon="23.43706033">
        <ele>12</ele>
        <time>2012-02-25T09:47:44Z</time>
      </trkpt>
      <trkpt lat="59.9715920208" lon="23.4370667003">
        <ele>12</ele>
        <time>2012-02-25T09:47:45Z</time>
      </trkpt>
      <trkpt lat="59.9715967985" lon="23.4371979608">
        <ele>12</ele>
        <time>2012-02-25T09:47:51Z</time>
      </trkpt>
      <trkpt lat="59.9716247941" lon="23.4372657704">
        <ele>12</ele>
        <time>2012-02-25T09:47:53Z</time>
      </trkpt>
      <trkpt lat="59.9718221878" lon="23.4374971946">
        <ele>12</ele>
        <time>2012-02-25T09:48:00Z</time>
      </trkpt>
      <trkpt lat="59.9719320745" lon="23.437678076">
        <ele>12</ele>
        <time>2012-02-25T09:48:04Z</time>
      </trkpt>
      <trkpt lat="59.9720215094" lon="23.4379868652">
        <ele>12</ele>
        <time>2012-02-25T09:48:09Z</time>
      </trkpt>
      <trkpt lat="59.972122176" lon="23.4382306947">
        <ele>12</ele>
        <time>2012-02-25T09:48:13Z</time>
      </trkpt>
      <trkpt lat="59.9721926678" lon="23.4384835766">
        <ele>12</ele>
        <time>2012-02-25T09:48:17Z</time>
      </trkpt>
      <trkpt lat="59.9721938412" lon="23.4385507995">
        <ele>12</ele>
        <time>2012-02-25T09:48:18Z</time>
      </trkpt>
      <trkpt lat="59.9721299712" lon="23.4387072057">
        <ele>12</ele>
        <time>2012-02-25T09:48:21Z</time>
      </trkpt>
      <trkpt lat="59.9720938452" lon="23.4387393922">
        <ele>12</ele>
        <time>2012-02-25T09:48:22Z</time>
      </trkpt>
      <trkpt lat="59.9718686235" lon="23.438889093">
        <ele>12</ele>
        <time>2012-02-25T09:48:28Z</time>
      </trkpt>
      <trkpt lat="59.9716656139" lon="23.4390019971">
        <ele>12</ele>
        <time>2012-02-25T09:48:34Z</time>
      </trkpt>
      <trkpt lat="59.9716045937" lon="23.4391625105">
        <ele>12</ele>
        <time>2012-02-25T09:48:37Z</time>
      </trkpt>
      <trkpt lat="59.9716064377" lon="23.4392318288">
        <ele>12</ele>
        <time>2012-02-25T09:48:38Z</time>
      </trkpt>
      <trkpt lat="59.9716731576" lon="23.4395909933">
        <ele>12</ele>
        <time>2012-02-25T09:48:43Z</time>
      </trkpt>
      <trkpt lat="59.9717381173" lon="23.4399914804">
        <ele>12</ele>
        <time>2012-02-25T09:48:49Z</time>
      </trkpt>
      <trkpt lat="59.9717925159" lon="23.4403254992">
        <ele>12</ele>
        <time>2012-02-25T09:48:53Z</time>
      </trkpt>
      <trkpt lat="59.9718504348" lon="23.440692794">
        <ele>12</ele>
        <time>2012-02-25T09:48:58Z</time>
      </trkpt>
      <trkpt lat="59.9718561345" lon="23.4407751043">
        <ele>12</ele>
        <time>2012-02-25T09:48:59Z</time>
      </trkpt>
      <trkpt lat="59.9719141372" lon="23.4411004896">
        <ele>12</ele>
        <time>2012-02-25T09:49:04Z</time>
      </trkpt>
      <trkpt lat="59.9718328328" lon="23.4412435687">
        <ele>12</ele>
        <time>2012-02-25T09:49:08Z</time>
      </trkpt>
      <trkpt lat="59.9716699725" lon="23.4414169902">
        <ele>12</ele>
        <time>2012-02-25T09:49:13Z</time>
      </trkpt>
      <trkpt lat="59.9715031727" lon="23.44158379">
        <ele>12.2</ele>
        <time>2012-02-25T09:49:18Z</time>
      </trkpt>
      <trkpt lat="59.9713415697" lon="23.4417676889">
        <ele>13</ele>
        <time>2012-02-25T09:49:23Z</time>
      </trkpt>
      <trkpt lat="59.9712694015" lon="23.4419639092">
        <ele>13.4</ele>
        <time>2012-02-25T09:49:27Z</time>
      </trkpt>
      <trkpt lat="59.971270575" lon="23.4419925752">
        <ele>13.4</ele>
        <time>2012-02-25T09:49:28Z</time>
      </trkpt>
      <trkpt lat="59.9713272366" lon="23.4421698524">
        <ele>13.6</ele>
        <time>2012-02-25T09:49:32Z</time>
      </trkpt>
      <trkpt lat="59.9713497001" lon="23.4423332995">
        <ele>13.8</ele>
        <time>2012-02-25T09:49:36Z</time>
      </trkpt>
      <trkpt lat="59.9713789529" lon="23.4422934016">
        <ele>13.8</ele>
        <time>2012-02-25T09:49:40Z</time>
      </trkpt>
      <trkpt lat="59.9714480198" lon="23.442302957">
        <ele>14</ele>
        <time>2012-02-25T09:49:44Z</time>
      </trkpt>
      <trkpt lat="59.9714920248" lon="23.442354841">
        <ele>14</ele>
        <time>2012-02-25T09:49:46Z</time>
      </trkpt>
      <trkpt lat="59.9716237044" lon="23.4425673221">
        <ele>14</ele>
        <time>2012-02-25T09:49:51Z</time>
      </trkpt>
      <trkpt lat="59.9717455772" lon="23.4428237245">
        <ele>14</ele>
        <time>2012-02-25T09:49:56Z</time>
      </trkpt>
      <trkpt lat="59.9717954495" lon="23.4430521312">
        <ele>14</ele>
        <time>2012-02-25T09:50:00Z</time>
      </trkpt>
      <trkpt lat="59.9718757481" lon="23.4432770176">
        <ele>14</ele>
        <time>2012-02-25T09:50:04Z</time>
      </trkpt>
      <trkpt lat="59.9719590642" lon="23.4435054244">
        <ele>14</ele>
        <time>2012-02-25T09:50:08Z</time>
      </trkpt>
      <trkpt lat="59.9720883969" lon="23.4437824462">
        <ele>14</ele>
        <time>2012-02-25T09:50:13Z</time>
      </trkpt>
      <trkpt lat="59.9721941765" lon="23.4440032254">
        <ele>14</ele>
        <time>2012-02-25T09:50:17Z</time>
      </trkpt>
      <trkpt lat="59.9722832761" lon="23.4441403533">
        <ele>14</ele>
        <time>2012-02-25T09:50:20Z</time>
      </trkpt>
      <trkpt lat="59.9723866249" lon="23.4441265232">
        <ele>14</ele>
        <time>2012-02-25T09:50:24Z</time>
      </trkpt>
      <trkpt lat="59.9724199011" lon="23.4439254414">
        <ele>14</ele>
        <time>2012-02-25T09:50:28Z</time>
      </trkpt>
      <trkpt lat="59.9725485633" lon="23.4436087732">
        <ele>14</ele>
        <time>2012-02-25T09:50:34Z</time>
      </trkpt>
      <trkpt lat="59.9727998526" lon="23.4432197692">
        <ele>14</ele>
        <time>2012-02-25T09:50:43Z</time>
      </trkpt>
      <trkpt lat="59.9727066459" lon="23.4429252293">
        <ele>14</ele>
        <time>2012-02-25T09:50:47Z</time>
      </trkpt>
      <trkpt lat="59.97258712" lon="23.4426504706">
        <ele>14</ele>
        <time>2012-02-25T09:50:52Z</time>
      </trkpt>
      <trkpt lat="59.9725633154" lon="23.4426029452">
        <ele>14</ele>
        <time>2012-02-25T09:50:53Z</time>
      </trkpt>
      <trkpt lat="59.9725131078" lon="23.442578051">
        <ele>14</ele>
        <time>2012-02-25T09:50:55Z</time>
      </trkpt>
      <trkpt lat="59.9724830168" lon="23.442870244">
        <ele>14.2</ele>
        <time>2012-02-25T09:50:59Z</time>
      </trkpt>
      <trkpt lat="59.9724928236" lon="23.4429308451">
        <ele>14.4</ele>
        <time>2012-02-25T09:51:00Z</time>
      </trkpt>
      <trkpt lat="59.9725038039" lon="23.443025393">
        <ele>14.8</ele>
        <time>2012-02-25T09:51:02Z</time>
      </trkpt>
      <trkpt lat="59.9724904767" lon="23.4430543105">
        <ele>15</ele>
        <time>2012-02-25T09:51:04Z</time>
      </trkpt>
      <trkpt lat="59.972464409" lon="23.4428925399">
        <ele>15.4</ele>
        <time>2012-02-25T09:51:08Z</time>
      </trkpt>
      <trkpt lat="59.972452842" lon="23.4428233054">
        <ele>15.4</ele>
        <time>2012-02-25T09:51:09Z</time>
      </trkpt>
      <trkpt lat="59.9724488186" lon="23.4427488741">
        <ele>15.6</ele>
        <time>2012-02-25T09:51:10Z</time>
      </trkpt>
      <trkpt lat="59.9725032172" lon="23.4425585211">
        <ele>15.6</ele>
        <time>2012-02-25T09:51:13Z</time>
      </trkpt>
      <trkpt lat="59.9726368247" lon="23.4422825052">
        <ele>15.8</ele>
        <time>2012-02-25T09:51:18Z</time>
      </trkpt>
      <trkpt lat="59.97269642" lon="23.442172367">
        <ele>15.8</ele>
        <time>2012-02-25T09:51:20Z</time>
      </trkpt>
      <trkpt lat="59.9727821668" lon="23.4420290365">
        <ele>16</ele>
        <time>2012-02-25T09:51:23Z</time>
      </trkpt>
      <trkpt lat="59.972946955" lon="23.4418054074">
        <ele>16</ele>
        <time>2012-02-25T09:51:28Z</time>
      </trkpt>
      <trkpt lat="59.9731073007" lon="23.4415713848">
        <ele>16</ele>
        <time>2012-02-25T09:51:33Z</time>
      </trkpt>
      <trkpt lat="59.9731273335" lon="23.4415117895">
        <ele>16</ele>
        <time>2012-02-25T09:51:34Z</time>
      </trkpt>
      <trkpt lat="59.9731546584" lon="23.4412781021">
        <ele>16</ele>
        <time>2012-02-25T09:51:37Z</time>
      </trkpt>
      <trkpt lat="59.9732043631" lon="23.4408903554">
        <ele>16</ele>
        <time>2012-02-25T09:51:43Z</time>
      </trkpt>
      <trkpt lat="59.9731793012" lon="23.4408383038">
        <ele>16</ele>
        <time>2012-02-25T09:51:47Z</time>
      </trkpt>
      <trkpt lat="59.9731573407" lon="23.4408125714">
        <ele>16</ele>
        <time>2012-02-25T09:51:54Z</time>
      </trkpt>
      <trkpt lat="59.9731188677" lon="23.440765046">
        <ele>16</ele>
        <time>2012-02-25T09:51:59Z</time>
      </trkpt>
      <trkpt lat="59.973096069" lon="23.4407530599">
        <ele>16</ele>
        <time>2012-02-25T09:52:06Z</time>
      </trkpt>
      <trkpt lat="59.9730991703" lon="23.4407593463">
        <ele>16</ele>
        <time>2012-02-25T09:52:51Z</time>
      </trkpt>
      <trkpt lat="59.9730957337" lon="23.44076228">
        <ele>16</ele>
        <time>2012-02-25T09:53:03Z</time>
      </trkpt>
      <trkpt lat="59.9730983321" lon="23.4407556583">
        <ele>16</ele>
        <time>2012-02-25T09:53:09Z</time>
      </trkpt>
      <trkpt lat="59.9731007628" lon="23.4407487013">
        <ele>16</ele>
        <time>2012-02-25T09:53:15Z</time>
      </trkpt>
      <trkpt lat="59.9730924647" lon="23.440720119">
        <ele>16</ele>
        <time>2012-02-25T09:53:34Z</time>
      </trkpt>
      <trkpt lat="59.9731178619" lon="23.4406662234">
        <ele>17.4</ele>
        <time>2012-02-25T09:54:21Z</time>
      </trkpt>
      <trkpt lat="59.9731241483" lon="23.4406964821">
        <ele>22</ele>
        <time>2012-02-25T09:54:59Z</time>
      </trkpt>
      <trkpt lat="59.9731082227" lon="23.4407157604">
        <ele>22.2</ele>
        <time>2012-02-25T09:55:38Z</time>
      </trkpt>
      <trkpt lat="59.9730911236" lon="23.4406835739">
        <ele>22.2</ele>
        <time>2012-02-25T09:56:05Z</time>
      </trkpt>
      <trkpt lat="59.9731546584" lon="23.4406257388">
        <ele>22.2</ele>
        <time>2012-02-25T09:56:36Z</time>
      </trkpt>
      <trkpt lat="59.9732518047" lon="23.4404037023">
        <ele>22.2</ele>
        <time>2012-02-25T09:56:41Z</time>
      </trkpt>
      <trkpt lat="59.9732571691" lon="23.4401483896">
        <ele>22.2</ele>
        <time>2012-02-25T09:56:44Z</time>
      </trkpt>
      <trkpt lat="59.9732439257" lon="23.4400080766">
        <ele>22.2</ele>
        <time>2012-02-25T09:56:46Z</time>
      </trkpt>
      <trkpt lat="59.9731608611" lon="23.4397830226">
        <ele>22.2</ele>
        <time>2012-02-25T09:56:50Z</time>
      </trkpt>
      <trkpt lat="59.9731285069" lon="23.4395549511">
        <ele>21.8</ele>
        <time>2012-02-25T09:56:54Z</time>
      </trkpt>
      <trkpt lat="59.9731347933" lon="23.4395070904">
        <ele>21.6</ele>
        <time>2012-02-25T09:56:55Z</time>
      </trkpt>
      <trkpt lat="59.9731907006" lon="23.4394386941">
        <ele>21.2</ele>
        <time>2012-02-25T09:56:58Z</time>
      </trkpt>
      <trkpt lat="59.9731953107" lon="23.4394358443">
        <ele>21.2</ele>
        <time>2012-02-25T09:56:59Z</time>
      </trkpt>
      <trkpt lat="59.9731946401" lon="23.4394348385">
        <ele>21</ele>
        <time>2012-02-25T09:57:01Z</time>
      </trkpt>
      <trkpt lat="59.9732617791" lon="23.4394303122">
        <ele>20.6</ele>
        <time>2012-02-25T09:57:06Z</time>
      </trkpt>
      <trkpt lat="59.9732994977" lon="23.439538774">
        <ele>20.6</ele>
        <time>2012-02-25T09:57:09Z</time>
      </trkpt>
      <trkpt lat="59.973308131" lon="23.4396033147">
        <ele>20.4</ele>
        <time>2012-02-25T09:57:10Z</time>
      </trkpt>
      <trkpt lat="59.9733604341" lon="23.4399607189">
        <ele>20.4</ele>
        <time>2012-02-25T09:57:15Z</time>
      </trkpt>
      <trkpt lat="59.9733828976" lon="23.4401006966">
        <ele>20.4</ele>
        <time>2012-02-25T09:57:17Z</time>
      </trkpt>
      <trkpt lat="59.9734986516" lon="23.4403111661">
        <ele>20.2</ele>
        <time>2012-02-25T09:57:22Z</time>
      </trkpt>
      <trkpt lat="59.9735361187" lon="23.4405056262">
        <ele>20.2</ele>
        <time>2012-02-25T09:57:25Z</time>
      </trkpt>
      <trkpt lat="59.9735451712" lon="23.4405852542">
        <ele>20.2</ele>
        <time>2012-02-25T09:57:26Z</time>
      </trkpt>
      <trkpt lat="59.9736071972" lon="23.4409531358">
        <ele>20.2</ele>
        <time>2012-02-25T09:57:31Z</time>
      </trkpt>
      <trkpt lat="59.9736276491" lon="23.4411650303">
        <ele>20.2</ele>
        <time>2012-02-25T09:57:34Z</time>
      </trkpt>
      <trkpt lat="59.9737226998" lon="23.4411935287">
        <ele>20.2</ele>
        <time>2012-02-25T09:57:38Z</time>
      </trkpt>
      <trkpt lat="59.9737501086" lon="23.4411761782">
        <ele>20.2</ele>
        <time>2012-02-25T09:57:39Z</time>
      </trkpt>
      <trkpt lat="59.9739365221" lon="23.4410830553">
        <ele>20.2</ele>
        <time>2012-02-25T09:57:44Z</time>
      </trkpt>
      <trkpt lat="59.974060658" lon="23.4409968055">
        <ele>20.2</ele>
        <time>2012-02-25T09:57:49Z</time>
      </trkpt>
      <trkpt lat="59.9740817804" lon="23.4409798741">
        <ele>20.2</ele>
        <time>2012-02-25T09:57:50Z</time>
      </trkpt>
      <trkpt lat="59.9741878114" lon="23.4409061972">
        <ele>20.6</ele>
        <time>2012-02-25T09:57:54Z</time>
      </trkpt>
      <trkpt lat="59.9742573812" lon="23.4405745254">
        <ele>21.2</ele>
        <time>2012-02-25T09:57:59Z</time>
      </trkpt>
      <trkpt lat="59.9742860473" lon="23.4403256668">
        <ele>21.6</ele>
        <time>2012-02-25T09:58:03Z</time>
      </trkpt>
      <trkpt lat="59.9743035655" lon="23.4400086633">
        <ele>22.6</ele>
        <time>2012-02-25T09:58:08Z</time>
      </trkpt>
      <trkpt lat="59.9742498375" lon="23.4396713757">
        <ele>23.2</ele>
        <time>2012-02-25T09:58:13Z</time>
      </trkpt>
      <trkpt lat="59.9741757415" lon="23.4392778455">
        <ele>23.8</ele>
        <time>2012-02-25T09:58:19Z</time>
      </trkpt>
      <trkpt lat="59.9741638392" lon="23.4391568108">
        <ele>23.8</ele>
        <time>2012-02-25T09:58:21Z</time>
      </trkpt>
      <trkpt lat="59.974176915" lon="23.4389812939">
        <ele>24</ele>
        <time>2012-02-25T09:58:25Z</time>
      </trkpt>
      <trkpt lat="59.9742427129" lon="23.4388963852">
        <ele>24</ele>
        <time>2012-02-25T09:58:29Z</time>
      </trkpt>
      <trkpt lat="59.97423014" lon="23.4389062759">
        <ele>24</ele>
        <time>2012-02-25T09:58:32Z</time>
      </trkpt>
      <trkpt lat="59.9741775017" lon="23.4390169169">
        <ele>24.2</ele>
        <time>2012-02-25T09:58:36Z</time>
      </trkpt>
      <trkpt lat="59.9741784237" lon="23.4390824634">
        <ele>24.2</ele>
        <time>2012-02-25T09:58:37Z</time>
      </trkpt>
      <trkpt lat="59.9742599796" lon="23.4395657637">
        <ele>24.2</ele>
        <time>2012-02-25T09:58:44Z</time>
      </trkpt>
      <trkpt lat="59.9743426251" lon="23.4398706134">
        <ele>24.2</ele>
        <time>2012-02-25T09:58:49Z</time>
      </trkpt>
      <trkpt lat="59.9743683576" lon="23.4399036381">
        <ele>24.2</ele>
        <time>2012-02-25T09:58:50Z</time>
      </trkpt>
      <trkpt lat="59.9744334849" lon="23.4398558613">
        <ele>24.8</ele>
        <time>2012-02-25T09:58:53Z</time>
      </trkpt>
      <trkpt lat="59.9744472312" lon="23.4398074139">
        <ele>24.8</ele>
        <time>2012-02-25T09:58:54Z</time>
      </trkpt>
      <trkpt lat="59.974476987" lon="23.4397075855">
        <ele>25.2</ele>
        <time>2012-02-25T09:58:56Z</time>
      </trkpt>
      <trkpt lat="59.9745263564" lon="23.4395511792">
        <ele>25.4</ele>
        <time>2012-02-25T09:58:59Z</time>
      </trkpt>
      <trkpt lat="59.9746189764" lon="23.4391074415">
        <ele>25.8</ele>
        <time>2012-02-25T09:59:06Z</time>
      </trkpt>
      <trkpt lat="59.9746741293" lon="23.4388412323">
        <ele>26</ele>
        <time>2012-02-25T09:59:10Z</time>
      </trkpt>
      <trkpt lat="59.9747304556" lon="23.4384938026">
        <ele>26</ele>
        <time>2012-02-25T09:59:15Z</time>
      </trkpt>
      <trkpt lat="59.9747734548" lon="23.4382244083">
        <ele>26.2</ele>
        <time>2012-02-25T09:59:19Z</time>
      </trkpt>
      <trkpt lat="59.9748708525" lon="23.4379607975">
        <ele>26.2</ele>
        <time>2012-02-25T09:59:24Z</time>
      </trkpt>
      <trkpt lat="59.9750134286" lon="23.4378510785">
        <ele>25.6</ele>
        <time>2012-02-25T09:59:29Z</time>
      </trkpt>
      <trkpt lat="59.9751948129" lon="23.4378602985">
        <ele>25</ele>
        <time>2012-02-25T09:59:34Z</time>
      </trkpt>
      <trkpt lat="59.9753446813" lon="23.4379226599">
        <ele>24.8</ele>
        <time>2012-02-25T09:59:38Z</time>
      </trkpt>
      <trkpt lat="59.9755103076" lon="23.4377944168">
        <ele>24.4</ele>
        <time>2012-02-25T09:59:44Z</time>
      </trkpt>
      <trkpt lat="59.9755622754" lon="23.4376554449">
        <ele>24.4</ele>
        <time>2012-02-25T09:59:47Z</time>
      </trkpt>
      <trkpt lat="59.9756227089" lon="23.4374231825">
        <ele>24.4</ele>
        <time>2012-02-25T09:59:53Z</time>
      </trkpt>
      <trkpt lat="59.9757359484" lon="23.4374743121">
        <ele>24.2</ele>
        <time>2012-02-25T09:59:56Z</time>
      </trkpt>
      <trkpt lat="59.9758640238" lon="23.4376261083">
        <ele>24.2</ele>
        <time>2012-02-25T10:00:00Z</time>
      </trkpt>
      <trkpt lat="59.9758988087" lon="23.4376685207">
        <ele>24.2</ele>
        <time>2012-02-25T10:00:01Z</time>
      </trkpt>
      <trkpt lat="59.9760634292" lon="23.4378709436">
        <ele>24.2</ele>
        <time>2012-02-25T10:00:06Z</time>
      </trkpt>
      <trkpt lat="59.9762125432" lon="23.4380848497">
        <ele>24.2</ele>
        <time>2012-02-25T10:00:11Z</time>
      </trkpt>
      <trkpt lat="59.9762680314" lon="23.4381682496">
        <ele>24.4</ele>
        <time>2012-02-25T10:00:13Z</time>
      </trkpt>
      <trkpt lat="59.9764008007" lon="23.4383703372">
        <ele>25.2</ele>
        <time>2012-02-25T10:00:18Z</time>
      </trkpt>
      <trkpt lat="59.9764264493" lon="23.438429681">
        <ele>25.4</ele>
        <time>2012-02-25T10:00:19Z</time>
      </trkpt>
      <trkpt lat="59.9765560335" lon="23.4386424975">
        <ele>26.4</ele>
        <time>2012-02-25T10:00:24Z</time>
      </trkpt>
      <trkpt lat="59.9765838614" lon="23.4386301761">
        <ele>26.6</ele>
        <time>2012-02-25T10:00:25Z</time>
      </trkpt>
      <trkpt lat="59.9766981905" lon="23.4384881867">
        <ele>27.2</ele>
        <time>2012-02-25T10:00:29Z</time>
      </trkpt>
      <trkpt lat="59.9767653295" lon="23.4384702494">
        <ele>27.6</ele>
        <time>2012-02-25T10:00:31Z</time>
      </trkpt>
      <trkpt lat="59.9769764696" lon="23.4385976543">
        <ele>28</ele>
        <time>2012-02-25T10:00:37Z</time>
      </trkpt>
      <trkpt lat="59.9770481348" lon="23.4386625302">
        <ele>28.2</ele>
        <time>2012-02-25T10:00:39Z</time>
      </trkpt>
      <trkpt lat="59.9771113343" lon="23.4387962215">
        <ele>28.2</ele>
        <time>2012-02-25T10:00:42Z</time>
      </trkpt>
      <trkpt lat="59.9771381564" lon="23.4388403103">
        <ele>28.2</ele>
        <time>2012-02-25T10:00:43Z</time>
      </trkpt>
      <trkpt lat="59.9772896174" lon="23.4387183537">
        <ele>29</ele>
        <time>2012-02-25T10:00:50Z</time>
      </trkpt>
      <trkpt lat="59.9772907908" lon="23.4387673878">
        <ele>29.2</ele>
        <time>2012-02-25T10:00:51Z</time>
      </trkpt>
      <trkpt lat="59.9773061297" lon="23.4389003247">
        <ele>29.4</ele>
        <time>2012-02-25T10:00:53Z</time>
      </trkpt>
      <trkpt lat="59.9773409146" lon="23.4391119677">
        <ele>29.8</ele>
        <time>2012-02-25T10:00:56Z</time>
      </trkpt>
      <trkpt lat="59.9773602768" lon="23.4395130416">
        <ele>30.2</ele>
        <time>2012-02-25T10:01:02Z</time>
      </trkpt>
      <trkpt lat="59.9773273359" lon="23.4396172286">
        <ele>30.2</ele>
        <time>2012-02-25T10:01:04Z</time>
      </trkpt>
      <trkpt lat="59.9773705027" lon="23.4398463898">
        <ele>30.6</ele>
        <time>2012-02-25T10:01:08Z</time>
      </trkpt>
      <trkpt lat="59.9774008452" lon="23.4399770636">
        <ele>31</ele>
        <time>2012-02-25T10:01:10Z</time>
      </trkpt>
      <trkpt lat="59.9774792159" lon="23.440296414">
        <ele>31.8</ele>
        <time>2012-02-25T10:01:15Z</time>
      </trkpt>
      <trkpt lat="59.9774863405" lon="23.4404440192">
        <ele>32</ele>
        <time>2012-02-25T10:01:17Z</time>
      </trkpt>
      <trkpt lat="59.9774266614" lon="23.440652058">
        <ele>32.2</ele>
        <time>2012-02-25T10:01:20Z</time>
      </trkpt>
      <trkpt lat="59.9773270006" lon="23.4407611903">
        <ele>33</ele>
        <time>2012-02-25T10:01:24Z</time>
      </trkpt>
      <trkpt lat="59.9773047886" lon="23.4407858331">
        <ele>33.2</ele>
        <time>2012-02-25T10:01:25Z</time>
      </trkpt>
      <trkpt lat="59.9771762102" lon="23.440963697">
        <ele>34</ele>
        <time>2012-02-25T10:01:30Z</time>
      </trkpt>
      <trkpt lat="59.977120303" lon="23.4410129826">
        <ele>34</ele>
        <time>2012-02-25T10:01:32Z</time>
      </trkpt>
      <trkpt lat="59.9771194648" lon="23.4411226178">
        <ele>34.4</ele>
        <time>2012-02-25T10:01:35Z</time>
      </trkpt>
      <trkpt lat="59.9771094065" lon="23.4412361926">
        <ele>34.4</ele>
        <time>2012-02-25T10:01:38Z</time>
      </trkpt>
      <trkpt lat="59.9770778906" lon="23.4412478434">
        <ele>34.6</ele>
        <time>2012-02-25T10:01:39Z</time>
      </trkpt>
      <trkpt lat="59.9770026211" lon="23.4411573189">
        <ele>34.6</ele>
        <time>2012-02-25T10:01:43Z</time>
      </trkpt>
      <trkpt lat="59.9768642359" lon="23.4414069319">
        <ele>34.8</ele>
        <time>2012-02-25T10:01:49Z</time>
      </trkpt>
      <trkpt lat="59.9767347356" lon="23.441642128">
        <ele>34.8</ele>
        <time>2012-02-25T10:01:54Z</time>
      </trkpt>
      <trkpt lat="59.9765767368" lon="23.4418914057">
        <ele>34.8</ele>
        <time>2012-02-25T10:02:00Z</time>
      </trkpt>
      <trkpt lat="59.9765242661" lon="23.4419635739">
        <ele>34.8</ele>
        <time>2012-02-25T10:02:02Z</time>
      </trkpt>
      <trkpt lat="59.9764981145" lon="23.442173289">
        <ele>34.8</ele>
        <time>2012-02-25T10:02:05Z</time>
      </trkpt>
      <trkpt lat="59.9766069116" lon="23.4426476207">
        <ele>34.8</ele>
        <time>2012-02-25T10:02:13Z</time>
      </trkpt>
      <trkpt lat="59.9766906468" lon="23.4428925399">
        <ele>34.8</ele>
        <time>2012-02-25T10:02:17Z</time>
      </trkpt>
      <trkpt lat="59.9767724541" lon="23.4432281511">
        <ele>34.8</ele>
        <time>2012-02-25T10:02:22Z</time>
      </trkpt>
      <trkpt lat="59.9767874577" lon="23.4433654467">
        <ele>34.8</ele>
        <time>2012-02-25T10:02:24Z</time>
      </trkpt>
      <trkpt lat="59.9766448816" lon="23.4435169914">
        <ele>34.8</ele>
        <time>2012-02-25T10:02:29Z</time>
      </trkpt>
      <trkpt lat="59.9764898165" lon="23.4436049175">
        <ele>34.8</ele>
        <time>2012-02-25T10:02:34Z</time>
      </trkpt>
      <trkpt lat="59.9761407941" lon="23.4436853838">
        <ele>34.8</ele>
        <time>2012-02-25T10:02:45Z</time>
      </trkpt>
      <trkpt lat="59.976020933" lon="23.4437197496">
        <ele>34.8</ele>
        <time>2012-02-25T10:02:49Z</time>
      </trkpt>
      <trkpt lat="59.9758403868" lon="23.44376124">
        <ele>34.8</ele>
        <time>2012-02-25T10:02:56Z</time>
      </trkpt>
      <trkpt lat="59.9757651174" lon="23.4438127887">
        <ele>34.8</ele>
        <time>2012-02-25T10:02:59Z</time>
      </trkpt>
      <trkpt lat="59.975759753" lon="23.4440915706">
        <ele>34.8</ele>
        <time>2012-02-25T10:03:04Z</time>
      </trkpt>
      <trkpt lat="59.9757123114" lon="23.4443218214">
        <ele>35</ele>
        <time>2012-02-25T10:03:08Z</time>
      </trkpt>
      <trkpt lat="59.9756957152" lon="23.4444478014">
        <ele>35.4</ele>
        <time>2012-02-25T10:03:10Z</time>
      </trkpt>
      <trkpt lat="59.9756811307" lon="23.4445678302">
        <ele>35.8</ele>
        <time>2012-02-25T10:03:12Z</time>
      </trkpt>
      <trkpt lat="59.9755968926" lon="23.4446979173">
        <ele>36.2</ele>
        <time>2012-02-25T10:03:16Z</time>
      </trkpt>
      <trkpt lat="59.9755511275" lon="23.4448257413">
        <ele>36.4</ele>
        <time>2012-02-25T10:03:20Z</time>
      </trkpt>
      <trkpt lat="59.975530508" lon="23.4448612805">
        <ele>36.4</ele>
        <time>2012-02-25T10:03:22Z</time>
      </trkpt>
      <trkpt lat="59.9754474434" lon="23.4449379749">
        <ele>36.6</ele>
        <time>2012-02-25T10:03:27Z</time>
      </trkpt>
      <trkpt lat="59.975451299" lon="23.4449033577">
        <ele>36.8</ele>
        <time>2012-02-25T10:03:29Z</time>
      </trkpt>
      <trkpt lat="59.9754806357" lon="23.4445980889">
        <ele>36.8</ele>
        <time>2012-02-25T10:03:34Z</time>
      </trkpt>
      <trkpt lat="59.9753238103" lon="23.444293323">
        <ele>35.8</ele>
        <time>2012-02-25T10:03:41Z</time>
      </trkpt>
      <trkpt lat="59.9751021091" lon="23.4443184687">
        <ele>35.4</ele>
        <time>2012-02-25T10:03:47Z</time>
      </trkpt>
      <trkpt lat="59.9749174558" lon="23.4444253379">
        <ele>35.2</ele>
        <time>2012-02-25T10:03:52Z</time>
      </trkpt>
      <trkpt lat="59.9747431961" lon="23.4445689199">
        <ele>35</ele>
        <time>2012-02-25T10:03:57Z</time>
      </trkpt>
      <trkpt lat="59.974551083" lon="23.444689703">
        <ele>34.6</ele>
        <time>2012-02-25T10:04:02Z</time>
      </trkpt>
      <trkpt lat="59.9743687767" lon="23.4448098157">
        <ele>33.8</ele>
        <time>2012-02-25T10:04:07Z</time>
      </trkpt>
      <trkpt lat="59.9741990432" lon="23.4449354603">
        <ele>33.4</ele>
        <time>2012-02-25T10:04:12Z</time>
      </trkpt>
      <trkpt lat="59.974010199" lon="23.445134279">
        <ele>32.4</ele>
        <time>2012-02-25T10:04:18Z</time>
      </trkpt>
      <trkpt lat="59.9739743244" lon="23.4451661302">
        <ele>32.2</ele>
        <time>2012-02-25T10:04:19Z</time>
      </trkpt>
      <trkpt lat="59.9739280564" lon="23.4453932797">
        <ele>31.8</ele>
        <time>2012-02-25T10:04:23Z</time>
      </trkpt>
      <trkpt lat="59.9739530344" lon="23.4458426334">
        <ele>31.2</ele>
        <time>2012-02-25T10:04:29Z</time>
      </trkpt>
      <trkpt lat="59.9740046669" lon="23.4461700304">
        <ele>30.2</ele>
        <time>2012-02-25T10:04:34Z</time>
      </trkpt>
      <trkpt lat="59.9740541201" lon="23.4463534264">
        <ele>29.6</ele>
        <time>2012-02-25T10:04:39Z</time>
      </trkpt>
      <trkpt lat="59.974066693" lon="23.4463672565">
        <ele>29.6</ele>
        <time>2012-02-25T10:04:40Z</time>
      </trkpt>
      <trkpt lat="59.9740730632" lon="23.4463765604">
        <ele>29.2</ele>
        <time>2012-02-25T10:04:44Z</time>
      </trkpt>
      <trkpt lat="59.9740740691" lon="23.4463695196">
        <ele>29.2</ele>
        <time>2012-02-25T10:04:46Z</time>
      </trkpt>
      <trkpt lat="59.9741058365" lon="23.4464157877">
        <ele>29</ele>
        <time>2012-02-25T10:04:48Z</time>
      </trkpt>
      <trkpt lat="59.9741700418" lon="23.4466599524">
        <ele>29</ele>
        <time>2012-02-25T10:04:54Z</time>
      </trkpt>
      <trkpt lat="59.9741469916" lon="23.4467221461">
        <ele>28.8</ele>
        <time>2012-02-25T10:04:58Z</time>
      </trkpt>
      <trkpt lat="59.9740661901" lon="23.4467808194">
        <ele>28.8</ele>
        <time>2012-02-25T10:05:01Z</time>
      </trkpt>
      <trkpt lat="59.9740616638" lon="23.4469332862">
        <ele>28.8</ele>
        <time>2012-02-25T10:05:04Z</time>
      </trkpt>
      <trkpt lat="59.9740361829" lon="23.4471930413">
        <ele>28.8</ele>
        <time>2012-02-25T10:05:08Z</time>
      </trkpt>
      <trkpt lat="59.973953705" lon="23.4472523013">
        <ele>28.8</ele>
        <time>2012-02-25T10:05:10Z</time>
      </trkpt>
      <trkpt lat="59.9737465044" lon="23.447354812">
        <ele>28.8</ele>
        <time>2012-02-25T10:05:15Z</time>
      </trkpt>
      <trkpt lat="59.9737045949" lon="23.4473795386">
        <ele>28.8</ele>
        <time>2012-02-25T10:05:16Z</time>
      </trkpt>
      <trkpt lat="59.9734279922" lon="23.4476179198">
        <ele>28.8</ele>
        <time>2012-02-25T10:05:21Z</time>
      </trkpt>
      <trkpt lat="59.9733156747" lon="23.4476786886">
        <ele>28.8</ele>
        <time>2012-02-25T10:05:23Z</time>
      </trkpt>
      <trkpt lat="59.9732328616" lon="23.4477228612">
        <ele>28.8</ele>
        <time>2012-02-25T10:05:25Z</time>
      </trkpt>
      <trkpt lat="59.9731988311" lon="23.4477197599">
        <ele>28.8</ele>
        <time>2012-02-25T10:05:26Z</time>
      </trkpt>
      <trkpt lat="59.9731352963" lon="23.4475655329">
        <ele>28.8</ele>
        <time>2012-02-25T10:05:29Z</time>
      </trkpt>
      <trkpt lat="59.9730738569" lon="23.4472857451">
        <ele>28.2</ele>
        <time>2012-02-25T10:05:33Z</time>
      </trkpt>
      <trkpt lat="59.9729874395" lon="23.4468819052">
        <ele>27.4</ele>
        <time>2012-02-25T10:05:39Z</time>
      </trkpt>
      <trkpt lat="59.9729307779" lon="23.4466986768">
        <ele>27.2</ele>
        <time>2012-02-25T10:05:43Z</time>
      </trkpt>
      <trkpt lat="59.9729174507" lon="23.4466714356">
        <ele>27</ele>
        <time>2012-02-25T10:05:46Z</time>
      </trkpt>
      <trkpt lat="59.9729441889" lon="23.4466426857">
        <ele>26.8</ele>
        <time>2012-02-25T10:05:49Z</time>
      </trkpt>
      <trkpt lat="59.9729538281" lon="23.4466390815">
        <ele>26.8</ele>
        <time>2012-02-25T10:05:50Z</time>
      </trkpt>
      <trkpt lat="59.9729700052" lon="23.4465237466">
        <ele>26.8</ele>
        <time>2012-02-25T10:05:54Z</time>
      </trkpt>
      <trkpt lat="59.9729337116" lon="23.4460372611">
        <ele>26.6</ele>
        <time>2012-02-25T10:06:01Z</time>
      </trkpt>
      <trkpt lat="59.9729051293" lon="23.4456753307">
        <ele>26.6</ele>
        <time>2012-02-25T10:06:06Z</time>
      </trkpt>
      <trkpt lat="59.9728014452" lon="23.4453139031">
        <ele>26.6</ele>
        <time>2012-02-25T10:06:11Z</time>
      </trkpt>
      <trkpt lat="59.9727185482" lon="23.4449701614">
        <ele>26.6</ele>
        <time>2012-02-25T10:06:16Z</time>
      </trkpt>
      <trkpt lat="59.9727006947" lon="23.4448972389">
        <ele>26.6</ele>
        <time>2012-02-25T10:06:17Z</time>
      </trkpt>
      <trkpt lat="59.9726012854" lon="23.4446373162">
        <ele>26</ele>
        <time>2012-02-25T10:06:21Z</time>
      </trkpt>
      <trkpt lat="59.9724803346" lon="23.4443255095">
        <ele>25.4</ele>
        <time>2012-02-25T10:06:26Z</time>
      </trkpt>
      <trkpt lat="59.972433815" lon="23.4442059836">
        <ele>25.2</ele>
        <time>2012-02-25T10:06:28Z</time>
      </trkpt>
      <trkpt lat="59.9725609685" lon="23.4437079311">
        <ele>24.8</ele>
        <time>2012-02-25T10:06:36Z</time>
      </trkpt>
      <trkpt lat="59.9725828452" lon="23.4436573044">
        <ele>24.6</ele>
        <time>2012-02-25T10:06:37Z</time>
      </trkpt>
      <trkpt lat="59.9726383334" lon="23.443520428">
        <ele>24.2</ele>
        <time>2012-02-25T10:06:39Z</time>
      </trkpt>
      <trkpt lat="59.9727757127" lon="23.4432552247">
        <ele>23.4</ele>
        <time>2012-02-25T10:06:44Z</time>
      </trkpt>
      <trkpt lat="59.97290295" lon="23.4432171708">
        <ele>23.2</ele>
        <time>2012-02-25T10:06:48Z</time>
      </trkpt>
      <trkpt lat="59.9729138465" lon="23.443197641">
        <ele>23</ele>
        <time>2012-02-25T10:06:50Z</time>
      </trkpt>
      <trkpt lat="59.9728966636" lon="23.4431098825">
        <ele>23</ele>
        <time>2012-02-25T10:06:52Z</time>
      </trkpt>
      <trkpt lat="59.9730064665" lon="23.4430274046">
        <ele>22.8</ele>
        <time>2012-02-25T10:06:56Z</time>
      </trkpt>
      <trkpt lat="59.9730187878" lon="23.4431269816">
        <ele>22.8</ele>
        <time>2012-02-25T10:06:58Z</time>
      </trkpt>
      <trkpt lat="59.9730260801" lon="23.4432252175">
        <ele>22.6</ele>
        <time>2012-02-25T10:07:00Z</time>
      </trkpt>
      <trkpt lat="59.9730171953" lon="23.4432429033">
        <ele>22.6</ele>
        <time>2012-02-25T10:07:02Z</time>
      </trkpt>
      <trkpt lat="59.9729975816" lon="23.4430937055">
        <ele>22.6</ele>
        <time>2012-02-25T10:07:07Z</time>
      </trkpt>
      <trkpt lat="59.9729879425" lon="23.4430565736">
        <ele>22.6</ele>
        <time>2012-02-25T10:07:08Z</time>
      </trkpt>
      <trkpt lat="59.9729158581" lon="23.4430575795">
        <ele>22.6</ele>
        <time>2012-02-25T10:07:11Z</time>
      </trkpt>
      <trkpt lat="59.9727716894" lon="23.4430289134">
        <ele>21.8</ele>
        <time>2012-02-25T10:07:16Z</time>
      </trkpt>
      <trkpt lat="59.9726539237" lon="23.4428356268">
        <ele>21.2</ele>
        <time>2012-02-25T10:07:20Z</time>
      </trkpt>
      <trkpt lat="59.9726317955" lon="23.4427792166">
        <ele>21.2</ele>
        <time>2012-02-25T10:07:21Z</time>
      </trkpt>
      <trkpt lat="59.9725252616" lon="23.4425213893">
        <ele>21</ele>
        <time>2012-02-25T10:07:25Z</time>
      </trkpt>
      <trkpt lat="59.9723946716" lon="23.4422081577">
        <ele>20.8</ele>
        <time>2012-02-25T10:07:30Z</time>
      </trkpt>
      <trkpt lat="59.9723450507" lon="23.4420790765">
        <ele>20.8</ele>
        <time>2012-02-25T10:07:32Z</time>
      </trkpt>
      <trkpt lat="59.9722610641" lon="23.4418932497">
        <ele>20.6</ele>
        <time>2012-02-25T10:07:35Z</time>
      </trkpt>
      <trkpt lat="59.9719666918" lon="23.4412955364">
        <ele>20.6</ele>
        <time>2012-02-25T10:07:46Z</time>
      </trkpt>
      <trkpt lat="59.9719381933" lon="23.4412557224">
        <ele>20.6</ele>
        <time>2012-02-25T10:07:47Z</time>
      </trkpt>
      <trkpt lat="59.971713726" lon="23.4413271362">
        <ele>20.6</ele>
        <time>2012-02-25T10:07:54Z</time>
      </trkpt>
      <trkpt lat="59.9716006542" lon="23.4414791839">
        <ele>20.6</ele>
        <time>2012-02-25T10:07:58Z</time>
      </trkpt>
      <trkpt lat="59.9714199404" lon="23.441712536">
        <ele>20.6</ele>
        <time>2012-02-25T10:08:04Z</time>
      </trkpt>
      <trkpt lat="59.9712507937" lon="23.4419261906">
        <ele>20.4</ele>
        <time>2012-02-25T10:08:09Z</time>
      </trkpt>
      <trkpt lat="59.9710808087" lon="23.4421212374">
        <ele>20.4</ele>
        <time>2012-02-25T10:08:14Z</time>
      </trkpt>
      <trkpt lat="59.9709138413" lon="23.4423239956">
        <ele>20.4</ele>
        <time>2012-02-25T10:08:19Z</time>
      </trkpt>
      <trkpt lat="59.9708638852" lon="23.4423836747">
        <ele>20.4</ele>
        <time>2012-02-25T10:08:21Z</time>
      </trkpt>
      <trkpt lat="59.9709141766" lon="23.4425236524">
        <ele>20.4</ele>
        <time>2012-02-25T10:08:25Z</time>
      </trkpt>
      <trkpt lat="59.97092742" lon="23.4425739438">
        <ele>20.4</ele>
        <time>2012-02-25T10:08:26Z</time>
      </trkpt>
      <trkpt lat="59.9709425074" lon="23.4426157695">
        <ele>20.4</ele>
        <time>2012-02-25T10:08:27Z</time>
      </trkpt>
      <trkpt lat="59.9710019351" lon="23.4427361336">
        <ele>20.4</ele>
        <time>2012-02-25T10:08:31Z</time>
      </trkpt>
      <trkpt lat="59.9710696608" lon="23.4427703318">
        <ele>20.2</ele>
        <time>2012-02-25T10:08:34Z</time>
      </trkpt>
      <trkpt lat="59.971089945" lon="23.4427903645">
        <ele>20</ele>
        <time>2012-02-25T10:08:36Z</time>
      </trkpt>
      <trkpt lat="59.9710977402" lon="23.4427963156">
        <ele>19.8</ele>
        <time>2012-02-25T10:08:37Z</time>
      </trkpt>
      <trkpt lat="59.9710943036" lon="23.4427893587">
        <ele>19.2</ele>
        <time>2012-02-25T10:08:43Z</time>
      </trkpt>
      <trkpt lat="59.9709637974" lon="23.4426191223">
        <ele>18.8</ele>
        <time>2012-02-25T10:08:53Z</time>
      </trkpt>
      <trkpt lat="59.9708776315" lon="23.4424172023">
        <ele>18.6</ele>
        <time>2012-02-25T10:08:58Z</time>
      </trkpt>
      <trkpt lat="59.9708600295" lon="23.4423498118">
        <ele>18.6</ele>
        <time>2012-02-25T10:09:00Z</time>
      </trkpt>
      <trkpt lat="59.9709896975" lon="23.4420965108">
        <ele>18.6</ele>
        <time>2012-02-25T10:09:06Z</time>
      </trkpt>
      <trkpt lat="59.9711354587" lon="23.441892663">
        <ele>18.6</ele>
        <time>2012-02-25T10:09:11Z</time>
      </trkpt>
      <trkpt lat="59.9713108919" lon="23.441737514">
        <ele>18.6</ele>
        <time>2012-02-25T10:09:16Z</time>
      </trkpt>
      <trkpt lat="59.9714766021" lon="23.4415406232">
        <ele>18</ele>
        <time>2012-02-25T10:09:21Z</time>
      </trkpt>
      <trkpt lat="59.9716436533" lon="23.4413590712">
        <ele>17.2</ele>
        <time>2012-02-25T10:09:26Z</time>
      </trkpt>
      <trkpt lat="59.97180819" lon="23.4411806206">
        <ele>17</ele>
        <time>2012-02-25T10:09:31Z</time>
      </trkpt>
      <trkpt lat="59.9719205913" lon="23.4410503659">
        <ele>16.8</ele>
        <time>2012-02-25T10:09:35Z</time>
      </trkpt>
      <trkpt lat="59.9718482555" lon="23.4406702467">
        <ele>16.6</ele>
        <time>2012-02-25T10:09:40Z</time>
      </trkpt>
      <trkpt lat="59.9717921806" lon="23.4402695919">
        <ele>16.4</ele>
        <time>2012-02-25T10:09:45Z</time>
      </trkpt>
      <trkpt lat="59.9717296516" lon="23.4398807555">
        <ele>16.4</ele>
        <time>2012-02-25T10:09:50Z</time>
      </trkpt>
      <trkpt lat="59.9717110438" lon="23.4397234273">
        <ele>16.4</ele>
        <time>2012-02-25T10:09:52Z</time>
      </trkpt>
      <trkpt lat="59.9716479281" lon="23.4392699665">
        <ele>15.6</ele>
        <time>2012-02-25T10:09:58Z</time>
      </trkpt>
      <trkpt lat="59.9716089523" lon="23.4390847265">
        <ele>15.2</ele>
        <time>2012-02-25T10:10:01Z</time>
      </trkpt>
      <trkpt lat="59.9715947869" lon="23.4390589102">
        <ele>15.2</ele>
        <time>2012-02-25T10:10:02Z</time>
      </trkpt>
      <trkpt lat="59.9715874946" lon="23.4390511989">
        <ele>15</ele>
        <time>2012-02-25T10:10:03Z</time>
      </trkpt>
      <trkpt lat="59.9716716489" lon="23.4390077807">
        <ele>14.8</ele>
        <time>2012-02-25T10:10:07Z</time>
      </trkpt>
      <trkpt lat="59.971704003" lon="23.4389934476">
        <ele>14.8</ele>
        <time>2012-02-25T10:10:08Z</time>
      </trkpt>
      <trkpt lat="59.9718182483" lon="23.43895531">
        <ele>14.6</ele>
        <time>2012-02-25T10:10:11Z</time>
      </trkpt>
      <trkpt lat="59.9719961122" lon="23.438908539">
        <ele>14.6</ele>
        <time>2012-02-25T10:10:16Z</time>
      </trkpt>
      <trkpt lat="59.9721339107" lon="23.4388190203">
        <ele>14.4</ele>
        <time>2012-02-25T10:10:20Z</time>
      </trkpt>
      <trkpt lat="59.972278247" lon="23.4387880072">
        <ele>14.4</ele>
        <time>2012-02-25T10:10:24Z</time>
      </trkpt>
      <trkpt lat="59.9723891395" lon="23.4390522885">
        <ele>13.8</ele>
        <time>2012-02-25T10:10:29Z</time>
      </trkpt>
      <trkpt lat="59.9724122736" lon="23.4391197628">
        <ele>13.6</ele>
        <time>2012-02-25T10:10:30Z</time>
      </trkpt>
      <trkpt lat="59.9725241719" lon="23.4394640913">
        <ele>13</ele>
        <time>2012-02-25T10:10:35Z</time>
      </trkpt>
      <trkpt lat="59.9726186359" lon="23.4397905663">
        <ele>12.8</ele>
        <time>2012-02-25T10:10:40Z</time>
      </trkpt>
      <trkpt lat="59.9727426881" lon="23.4401489763">
        <ele>12.6</ele>
        <time>2012-02-25T10:10:47Z</time>
      </trkpt>
      <trkpt lat="59.972804295" lon="23.4402792311">
        <ele>12.4</ele>
        <time>2012-02-25T10:10:50Z</time>
      </trkpt>
      <trkpt lat="59.9728920535" lon="23.4404546642">
        <ele>12.4</ele>
        <time>2012-02-25T10:10:53Z</time>
      </trkpt>
      <trkpt lat="59.9730224759" lon="23.4407200352">
        <ele>12.4</ele>
        <time>2012-02-25T10:10:59Z</time>
      </trkpt>
      <trkpt lat="59.9730274212" lon="23.4407168501">
        <ele>12.6</ele>
        <time>2012-02-25T10:11:04Z</time>
      </trkpt>
      <trkpt lat="59.973009903" lon="23.4407008406">
        <ele>13.8</ele>
        <time>2012-02-25T10:11:17Z</time>
      </trkpt>
      <trkpt lat="59.9730019402" lon="23.440706708">
        <ele>14</ele>
        <time>2012-02-25T10:11:21Z</time>
      </trkpt>
      <trkpt lat="59.9730093163" lon="23.4407003377">
        <ele>14.2</ele>
        <time>2012-02-25T10:11:29Z</time>
      </trkpt>
      <trkpt lat="59.9730101545" lon="23.4407051992">
        <ele>14.2</ele>
        <time>2012-02-25T10:11:38Z</time>
      </trkpt>
      <trkpt lat="59.9730363898" lon="23.4407508806">
        <ele>14.4</ele>
        <time>2012-02-25T10:11:44Z</time>
      </trkpt>
      <trkpt lat="59.9730385691" lon="23.4407862522">
        <ele>14.4</ele>
        <time>2012-02-25T10:11:51Z</time>
      </trkpt>
      <trkpt lat="59.973046951" lon="23.4407860007">
        <ele>15.6</ele>
        <time>2012-02-25T10:12:09Z</time>
      </trkpt>
    </trkseg>
  </trk>
</gpx>